Time;durP1;ratioP1;P1;durP2;ratioP2;P2;SDS_P1;SDS_P2;PMS_P1;PMS_P2;Temp;Humidity;BMP_temperature;BMP_pressure;BME280_temperature;BME280_humidity;BME280_pressure;Samples;Min_cycle;Max_cycle;Signal;HPM_P1;HPM_P2
2021/10/11 00:01:53;;;;;;;15.38;8.18;;;;;;;2.40;93.26;101096.66;4935105;29;20115;-76
2021/10/11 00:04:38;;;;;;;17.50;8.15;;;;;;;2.56;92.73;101093.22;4930482;29;20059;-75
2021/10/11 00:07:24;;;;;;;13.63;6.73;;;;;;;2.43;92.82;101091.22;4937546;29;20066;-75
2021/10/11 00:10:15;;;;;;;16.48;8.40;;;;;;;2.41;93.27;101083.34;4924284;29;20480;-75
2021/10/11 00:13:00;;;;;;;17.40;9.40;;;;;;;2.71;92.17;101080.16;4925843;29;20114;-75
2021/10/11 00:15:44;;;;;;;20.40;9.38;;;;;;;2.85;91.21;101080.38;4940387;29;20058;-75
2021/10/11 00:18:30;;;;;;;16.85;8.95;;;;;;;2.77;91.88;101078.06;4935403;29;20058;-75
2021/10/11 00:21:16;;;;;;;16.40;8.77;;;;;;;2.94;90.13;101069.28;4949804;29;20183;-76
2021/10/11 00:24:03;;;;;;;20.83;9.98;;;;;;;2.89;91.05;101068.66;4928467;29;20062;-76
2021/10/11 00:26:48;;;;;;;15.73;8.20;;;;;;;2.80;91.69;101069.09;4925947;29;20184;-75
2021/10/11 00:29:33;;;;;;;15.73;9.13;;;;;;;2.76;92.01;101078.16;4933168;29;20428;-75
2021/10/11 00:32:18;;;;;;;21.30;9.73;;;;;;;2.74;91.98;101070.28;4942272;29;20143;-75
2021/10/11 00:35:04;;;;;;;19.58;8.95;;;;;;;2.79;91.86;101067.41;4932899;29;20225;-77
2021/10/11 00:37:49;;;;;;;19.35;8.75;;;;;;;2.77;92.40;101070.13;4937812;29;20110;-75
2021/10/11 00:40:36;;;;;;;18.55;9.10;;;;;;;2.84;92.16;101065.34;4945005;29;20479;-75
2021/10/11 00:43:21;;;;;;;18.35;9.05;;;;;;;2.63;92.20;101056.69;4948377;29;20058;-76
2021/10/11 00:46:07;;;;;;;18.07;9.80;;;;;;;2.61;91.99;101058.56;4942345;29;20063;-75
2021/10/11 00:48:53;;;;;;;20.95;9.90;;;;;;;2.67;92.99;101052.09;4935757;29;20314;-76
2021/10/11 00:51:38;;;;;;;18.45;9.27;;;;;;;2.72;92.53;101044.75;4939188;29;20543;-77
2021/10/11 00:54:24;;;;;;;17.20;9.43;;;;;;;2.91;92.02;101049.09;4935611;29;20059;-76
2021/10/11 00:57:11;;;;;;;;;;;;;;;2.92;90.99;101037.53;4934266;29;20674;-75
2021/10/11 00:59:57;;;;;;;20.85;9.10;;;;;;;3.10;89.86;101041.09;4935433;29;19991;-75
2021/10/11 01:02:42;;;;;;;20.35;9.15;;;;;;;3.29;88.77;101034.84;4930064;29;20186;-76
2021/10/11 01:05:27;;;;;;;16.98;9.30;;;;;;;3.38;87.87;101034.38;4933884;29;20054;-76
2021/10/11 01:08:14;;;;;;;17.00;8.43;;;;;;;3.50;86.86;101031.94;4939020;29;20091;-77
2021/10/11 01:11:01;;;;;;;17.80;9.77;;;;;;;3.27;87.41;101031.41;4944170;29;20531;-75
2021/10/11 01:13:47;;;;;;;20.08;10.15;;;;;;;3.23;88.38;101025.41;4944820;29;20526;-75
2021/10/11 01:16:34;;;;;;;15.50;8.93;;;;;;;3.06;89.27;101020.94;5030513;23;20054;-77
2021/10/11 01:19:19;;;;;;;19.30;10.13;;;;;;;3.01;89.71;101022.97;4953963;28;20118;-77
2021/10/11 01:22:05;;;;;;;20.08;10.57;;;;;;;3.19;88.34;101018.53;4956866;28;20540;-77
2021/10/11 01:24:50;;;;;;;18.83;10.10;;;;;;;2.93;88.69;101014.53;4952090;29;20059;-78
2021/10/11 01:27:36;;;;;;;15.32;8.77;;;;;;;2.83;89.66;101000.88;4936426;29;20067;-80
2021/10/11 01:30:21;;;;;;;12.48;7.43;;;;;;;2.64;89.92;100995.66;4937742;29;20124;-78
2021/10/11 01:33:09;;;;;;;14.20;8.17;;;;;;;2.51;91.00;101002.47;4927676;29;20059;-79
2021/10/11 01:35:54;;;;;;;14.63;8.10;;;;;;;2.41;92.19;100997.69;4937890;29;20514;-77
2021/10/11 01:38:41;;;;;;;17.05;8.13;;;;;;;2.28;92.34;100987.69;4938432;29;20054;-77
2021/10/11 01:41:27;;;;;;;17.13;9.32;;;;;;;2.37;93.48;100986.41;4934570;29;20055;-78
2021/10/11 01:44:12;;;;;;;15.55;7.90;;;;;;;2.61;92.11;100987.00;4939238;29;20066;-78
2021/10/11 01:46:57;;;;;;;20.73;8.90;;;;;;;2.76;89.64;100980.94;4928872;29;20112;-77
2021/10/11 01:49:42;;;;;;;19.13;9.00;;;;;;;2.82;90.95;100982.41;4933333;29;20118;-78
2021/10/11 01:52:28;;;;;;;20.15;9.80;;;;;;;2.94;89.91;100984.44;4933835;29;20139;-78
2021/10/11 01:55:15;;;;;;;17.88;9.88;;;;;;;2.92;90.48;100979.22;4935745;29;20207;-78
2021/10/11 01:58:00;;;;;;;18.10;9.82;;;;;;;3.14;88.33;100976.31;4920428;29;20054;-78
2021/10/11 02:00:45;;;;;;;17.52;9.25;;;;;;;3.00;88.13;100970.03;4933417;29;20070;-77
2021/10/11 02:03:30;;;;;;;16.60;8.68;;;;;;;2.93;89.73;100959.72;4931049;29;20050;-78
2021/10/11 02:06:15;;;;;;;17.43;9.13;;;;;;;3.05;88.82;100958.22;4932561;29;20066;-79
2021/10/11 02:09:00;;;;;;;21.50;9.20;;;;;;;3.11;88.61;100952.63;4933013;29;20358;-77
2021/10/11 02:11:46;;;;;;;16.35;7.80;;;;;;;3.08;89.11;100952.78;4931805;29;20059;-78
2021/10/11 02:14:31;;;;;;;;;;;;;;;3.37;87.91;100948.59;4931518;29;20183;-77
2021/10/11 02:17:18;;;;;;;19.58;10.43;;;;;;;3.65;86.37;100941.81;4928825;29;19929;-79
2021/10/11 02:20:05;;;;;;;19.65;10.65;;;;;;;3.68;86.03;100942.50;4934692;29;20062;-78
2021/10/11 02:22:51;;;;;;;20.50;11.35;;;;;;;3.77;85.95;100946.44;4933551;29;20066;-78
2021/10/11 02:25:36;;;;;;;37.57;13.93;;;;;;;4.07;83.63;100939.44;4934036;29;20071;-76
2021/10/11 02:28:22;;;;;;;23.15;10.70;;;;;;;4.11;83.25;100940.13;4933387;29;20423;-77
2021/10/11 02:31:07;;;;;;;23.08;11.40;;;;;;;3.84;84.68;100941.66;4926825;29;20054;-78
2021/10/11 02:33:53;;;;;;;21.35;10.95;;;;;;;3.63;85.68;100936.56;4933401;29;20541;-76
2021/10/11 02:36:38;;;;;;;17.10;10.13;;;;;;;3.53;86.55;100944.16;4932385;29;20054;-78
2021/10/11 02:39:23;;;;;;;23.13;12.35;;;;;;;3.49;86.51;100937.31;4928546;29;20063;-80
2021/10/11 02:42:08;;;;;;;19.50;10.43;;;;;;;3.44;87.00;100933.22;4932119;29;20058;-78
2021/10/11 02:44:55;;;;;;;19.67;10.43;;;;;;;3.45;87.19;100935.78;4931540;29;20420;-79
2021/10/11 02:47:40;;;;;;;22.55;11.43;;;;;;;3.64;86.04;100934.78;4933803;29;20090;-79
2021/10/11 02:50:25;;;;;;;19.70;9.77;;;;;;;3.70;85.59;100929.16;4933733;29;20078;-77
2021/10/11 02:53:10;;;;;;;20.60;11.07;;;;;;;3.70;85.95;100924.69;4928716;29;20078;-80
2021/10/11 02:55:55;;;;;;;19.02;10.27;;;;;;;3.71;86.30;100926.41;4933492;29;20066;-79
2021/10/11 02:58:41;;;;;;;19.37;8.93;;;;;;;3.66;87.06;100922.28;4934028;29;20051;-76
2021/10/11 03:01:27;;;;;;;20.77;10.55;;;;;;;3.65;86.33;100921.41;4927790;29;20331;-80
2021/10/11 03:04:13;;;;;;;21.38;10.30;;;;;;;3.69;86.16;100917.69;4933966;29;20198;-77
2021/10/11 03:07:08;;;;;;;17.97;9.23;;;;;;;3.65;87.11;100921.41;4933699;29;20063;-79
2021/10/11 03:09:53;;;;;;;18.65;9.27;;;;;;;3.56;88.04;100916.63;4936413;29;20182;-80
2021/10/11 03:12:39;;;;;;;17.65;8.65;;;;;;;3.56;88.19;100911.31;4932663;29;20111;-78
2021/10/11 03:15:24;;;;;;;17.65;9.80;;;;;;;3.55;88.55;100906.94;4933348;29;21880;-79
2021/10/11 03:18:10;;;;;;;17.70;9.05;;;;;;;3.52;89.22;100904.44;4929828;29;20055;-78
2021/10/11 03:20:55;;;;;;;16.98;8.80;;;;;;;3.50;89.00;100909.00;4933973;29;20063;-77
2021/10/11 03:23:40;;;;;;;22.90;10.40;;;;;;;3.45;90.77;100909.25;4932472;29;20558;-78
2021/10/11 03:26:26;;;;;;;21.17;9.93;;;;;;;3.43;91.02;100900.53;4928291;29;20056;-79
2021/10/11 03:29:11;;;;;;;21.93;9.83;;;;;;;3.52;90.22;100899.13;4934133;29;20058;-77
2021/10/11 03:31:56;;;;;;;19.17;9.53;;;;;;;3.51;91.35;100892.13;4933451;29;20475;-79
2021/10/11 03:34:43;;;;;;;17.48;9.88;;;;;;;3.48;91.57;100893.16;4932344;29;20450;-78
2021/10/11 03:37:28;;;;;;;18.75;9.05;;;;;;;3.53;91.00;100895.53;4932401;29;20134;-81
2021/10/11 03:40:14;;;;;;;19.95;9.43;;;;;;;3.71;89.80;100897.22;4935319;29;20154;-81
2021/10/11 03:42:59;;;;;;;24.10;9.60;;;;;;;3.64;90.47;100893.16;4934105;29;20208;-79
2021/10/11 03:45:44;;;;;;;16.85;10.00;;;;;;;3.62;90.28;100899.50;4929622;29;20314;-78
2021/10/11 03:48:29;;;;;;;16.48;9.63;;;;;;;3.54;91.41;100897.25;4934833;29;20046;-78
2021/10/11 03:51:16;;;;;;;15.65;8.57;;;;;;;3.53;91.82;100895.53;4927017;29;20804;-78
2021/10/11 03:54:01;;;;;;;16.55;8.55;;;;;;;3.61;90.75;100887.16;4929732;29;20428;-77
2021/10/11 03:56:46;;;;;;;15.00;8.75;;;;;;;3.57;90.48;100891.81;4933196;29;20055;-79
2021/10/11 03:59:31;;;;;;;22.75;9.70;;;;;;;3.54;91.04;100899.91;4927186;29;20138;-77
2021/10/11 04:02:16;;;;;;;13.57;8.30;;;;;;;3.53;91.98;100906.16;4932842;29;20119;-78
2021/10/11 04:05:02;;;;;;;17.90;9.40;;;;;;;3.56;91.32;100900.72;4931847;29;20724;-80
2021/10/11 04:07:51;;;;;;;18.13;8.32;;;;;;;3.63;91.46;100902.06;4930752;29;20050;-78
2021/10/11 04:10:47;;;;;;;17.65;8.88;;;;;;;3.62;92.14;100900.34;4933115;29;20151;-78
2021/10/11 04:13:33;;;;;;;17.80;8.98;;;;;;;3.67;91.55;100893.00;4932472;29;20408;-77
2021/10/11 04:16:18;;;;;;;17.95;9.00;;;;;;;3.68;91.64;100897.38;4932698;29;20062;-77
2021/10/11 04:19:03;;;;;;;19.55;10.40;;;;;;;3.70;91.36;100902.59;4926983;29;20138;-77
2021/10/11 04:21:49;;;;;;;14.63;8.48;;;;;;;3.74;90.86;100899.69;4926755;29;20106;-78
2021/10/11 04:24:35;;;;;;;18.95;9.40;;;;;;;3.82;90.81;100896.63;4933838;29;20149;-77
2021/10/11 04:27:20;;;;;;;17.10;9.35;;;;;;;3.89;91.40;100897.09;4932205;29;20411;-79
2021/10/11 04:30:06;;;;;;;14.80;8.55;;;;;;;3.97;90.40;100902.84;4931593;29;20075;-80
2021/10/11 04:32:51;;;;;;;22.13;9.43;;;;;;;4.03;91.26;100900.72;4931197;29;20070;-78
2021/10/11 04:35:36;;;;;;;13.82;8.13;;;;;;;4.10;90.67;100895.91;4933367;29;20066;-79
2021/10/11 04:38:22;;;;;;;18.93;10.53;;;;;;;4.18;89.52;100890.16;4935536;29;20058;-80
2021/10/11 04:41:08;;;;;;;16.88;9.40;;;;;;;4.20;89.81;100886.47;4933131;29;20063;-79
2021/10/11 04:43:54;;;;;;;15.15;8.55;;;;;;;4.24;89.18;100881.84;4936771;29;20070;-78
2021/10/11 04:46:40;;;;;;;18.75;8.93;;;;;;;4.23;90.15;100880.13;4936212;29;20104;-78
2021/10/11 04:49:25;;;;;;;16.10;9.20;;;;;;;4.21;90.21;100882.88;4932288;29;20079;-78
2021/10/11 04:52:13;;;;;;;20.38;10.43;;;;;;;4.19;90.12;100878.59;4929581;29;20079;-79
2021/10/11 04:54:58;;;;;;;15.23;8.93;;;;;;;4.17;89.89;100876.03;4938907;29;20443;-81
2021/10/11 04:57:45;;;;;;;22.30;9.83;;;;;;;4.11;90.39;100879.88;4938330;29;20531;-77
2021/10/11 05:00:31;;;;;;;16.75;9.15;;;;;;;4.15;90.29;100879.72;4927761;29;20310;-80
2021/10/11 05:03:16;;;;;;;17.23;10.32;;;;;;;4.10;90.66;100872.84;4928083;29;20162;-78
2021/10/11 05:06:01;;;;;;;21.35;11.10;;;;;;;4.11;91.70;100879.03;4938115;29;20138;-77
2021/10/11 05:08:47;;;;;;;19.23;10.68;;;;;;;4.13;91.52;100890.41;4937486;29;20059;-79
2021/10/11 05:11:32;;;;;;;19.27;10.38;;;;;;;4.17;91.51;100875.19;4934520;29;20064;-80
2021/10/11 05:14:21;;;;;;;19.40;9.40;;;;;;;4.20;91.75;100878.50;4938741;29;20058;-80
2021/10/11 05:17:06;;;;;;;15.77;9.23;;;;;;;4.20;91.95;100875.84;4936622;29;20082;-79
2021/10/11 05:19:51;;;;;;;21.38;10.75;;;;;;;4.17;92.41;100880.50;4935661;29;20063;-80
2021/10/11 05:22:37;;;;;;;29.35;11.13;;;;;;;4.18;92.58;100883.06;4937122;29;20067;-75
2021/10/11 05:25:23;;;;;;;18.45;10.68;;;;;;;4.21;92.59;100882.88;4931268;29;20129;-79
2021/10/11 05:28:09;;;;;;;16.63;10.07;;;;;;;4.24;93.25;100881.84;4937895;29;20488;-78
2021/10/11 05:30:56;;;;;;;;;;;;;;;4.30;92.37;100879.69;4937528;29;20515;-78
2021/10/11 05:33:41;;;;;;;23.25;11.40;;;;;;;4.40;91.41;100872.03;4937465;29;20422;-76
2021/10/11 05:36:28;;;;;;;19.07;10.73;;;;;;;4.44;90.96;100875.38;4932994;29;20059;-80
2021/10/11 05:39:13;;;;;;;24.45;13.32;;;;;;;4.64;88.63;100875.06;4925112;29;20123;-75
2021/10/11 05:41:59;;;;;;;22.98;11.50;;;;;;;4.66;88.75;100871.34;4937667;29;20055;-80
2021/10/11 05:44:46;;;;;;;24.98;11.55;;;;;;;4.66;88.66;100867.84;4936560;29;20183;-80
2021/10/11 05:47:33;;;;;;;24.95;12.65;;;;;;;4.66;89.18;100867.84;4937050;29;20155;-79
2021/10/11 05:50:18;;;;;;;21.42;11.82;;;;;;;4.74;88.43;100864.75;4930390;29;20082;-81
2021/10/11 05:53:04;;;;;;;31.13;11.90;;;;;;;4.83;87.69;100870.34;4937903;29;20059;-79
2021/10/11 05:55:48;;;;;;;22.63;11.73;;;;;;;4.98;85.35;100866.78;4931941;29;20050;-79
2021/10/11 05:58:34;;;;;;;18.90;11.60;;;;;;;4.96;86.16;100863.31;4922080;29;20307;-80
2021/10/11 06:01:19;;;;;;;29.67;13.80;;;;;;;4.96;86.06;100862.47;4935385;29;20133;-79
2021/10/11 06:04:06;;;;;;;21.77;11.27;;;;;;;4.91;86.93;100857.44;4931551;29;20083;-77
2021/10/11 06:06:51;;;;;;;28.83;13.60;;;;;;;4.91;85.98;100861.91;4934002;29;20130;-81
2021/10/11 06:09:37;;;;;;;23.20;12.10;;;;;;;4.97;86.65;100857.09;4937473;29;20117;-80
2021/10/11 06:12:22;;;;;;;20.85;10.95;;;;;;;4.94;86.86;100857.25;4934781;29;20058;-76
2021/10/11 06:15:08;;;;;;;24.48;12.38;;;;;;;5.02;86.52;100866.56;4936876;29;20067;-77
2021/10/11 06:17:54;;;;;;;26.77;12.95;;;;;;;5.01;86.60;100860.41;4942060;29;20058;-78
2021/10/11 06:20:41;;;;;;;25.13;11.82;;;;;;;5.04;86.32;100856.69;4942576;29;20420;-77
2021/10/11 06:23:26;;;;;;;18.98;11.63;;;;;;;5.13;85.33;100864.97;4941007;29;20050;-78
2021/10/11 06:26:11;;;;;;;22.03;11.93;;;;;;;5.18;86.64;100864.69;4943317;29;20531;-75
2021/10/11 06:28:56;;;;;;;22.98;11.93;;;;;;;5.21;86.60;100868.03;4926842;29;20071;-76
2021/10/11 06:31:42;;;;;;;22.40;12.02;;;;;;;5.27;86.41;100874.75;4928832;29;20067;-77
2021/10/11 06:34:27;;;;;;;22.70;11.87;;;;;;;5.28;86.60;100887.97;4924858;29;20058;-77
2021/10/11 06:37:13;;;;;;;19.83;11.38;;;;;;;5.26;87.04;100881.88;4929647;29;20071;-79
2021/10/11 06:39:59;;;;;;;24.05;12.02;;;;;;;5.31;87.33;100892.25;4916783;29;20428;-79
2021/10/11 06:42:44;;;;;;;22.20;11.55;;;;;;;5.41;86.38;100888.06;4929604;29;20542;-80
2021/10/11 06:45:29;;;;;;;21.83;11.32;;;;;;;5.46;86.60;100891.31;4934908;29;20113;-78
2021/10/11 06:48:17;;;;;;;24.50;12.45;;;;;;;5.51;86.78;100891.00;4930879;29;20071;-78
2021/10/11 06:51:02;;;;;;;21.02;11.77;;;;;;;5.56;86.97;100897.78;4929578;29;20423;-78
2021/10/11 06:53:49;;;;;;;21.27;11.32;;;;;;;5.60;87.88;100900.25;4933636;29;20054;-79
2021/10/11 06:56:35;;;;;;;21.67;12.38;;;;;;;5.63;87.99;100902.69;4933925;29;20184;-79
2021/10/11 06:59:20;;;;;;;25.02;11.63;;;;;;;5.67;87.90;100905.06;4933193;29;20059;-77
2021/10/11 07:02:05;;;;;;;20.88;11.95;;;;;;;5.72;88.29;100907.44;4936715;29;20151;-80
2021/10/11 07:04:57;;;;;;;20.70;11.20;;;;;;;5.77;87.51;100911.53;4923307;29;20071;-80
2021/10/11 07:07:48;;;;;;;19.73;11.77;;;;;;;5.87;86.79;100911.78;4915931;29;20594;-76
2021/10/11 07:10:34;;;;;;;20.83;12.70;;;;;;;6.09;86.97;100903.31;4916918;29;20067;-77
2021/10/11 07:13:19;;;;;;;24.02;13.38;;;;;;;6.28;86.44;100903.84;4922076;29;20131;-79
2021/10/11 07:16:05;;;;;;;23.95;12.88;;;;;;;6.45;86.92;100916.03;4917787;29;20142;-77
2021/10/11 07:21:28;;;;;;;26.27;15.07;;;;;;;6.67;88.23;100913.66;4955639;28;20118;-59
2021/10/11 07:24:15;;;;;;;26.63;12.80;;;;;;;6.72;88.59;100914.19;4949693;28;20137;-62
2021/10/11 07:27:01;;;;;;;29.45;14.93;;;;;;;6.72;89.33;100918.69;4942427;28;20175;-62
2021/10/11 07:29:46;;;;;;;27.77;13.55;;;;;;;6.64;90.15;100908.53;4931641;28;20055;-64
2021/10/11 07:32:31;;;;;;;27.35;14.75;;;;;;;6.61;90.78;100913.19;4933313;28;20158;-63
2021/10/11 07:35:16;;;;;;;34.83;14.75;;;;;;;6.72;91.24;100910.66;4939768;28;20067;-65
2021/10/11 07:38:02;;;;;;;25.40;13.10;;;;;;;6.72;91.13;100918.69;4932558;29;20055;-64
2021/10/11 07:40:47;;;;;;;30.65;15.88;;;;;;;6.81;91.39;100915.41;4933721;28;20076;-62
2021/10/11 07:43:34;;;;;;;29.52;16.15;;;;;;;6.74;92.08;100914.94;4938246;28;20057;-63
2021/10/11 07:46:19;;;;;;;31.73;17.98;;;;;;;6.70;93.39;100918.78;4939310;28;20139;-62
2021/10/11 07:49:04;;;;;;;35.43;18.43;;;;;;;6.79;92.55;100925.31;4934780;28;20053;-63
2021/10/11 07:51:50;;;;;;;40.45;20.33;;;;;;;7.01;91.90;100922.06;4941887;28;20362;-62
2021/10/11 07:54:35;;;;;;;31.80;16.98;;;;;;;6.94;92.22;100932.28;4939051;28;20102;-62
2021/10/11 07:57:20;;;;;;;44.25;21.23;;;;;;;6.93;92.88;100924.38;4930797;28;20055;-63
2021/10/11 08:00:09;;;;;;;45.17;21.02;;;;;;;6.96;92.51;100929.50;4932062;28;20063;-63
2021/10/11 08:02:54;;;;;;;41.58;20.73;;;;;;;6.97;92.97;100934.72;4940437;28;20195;-62
2021/10/11 08:05:39;;;;;;;40.47;20.85;;;;;;;7.00;92.62;100933.69;4943855;28;20203;-63
2021/10/11 08:08:24;;;;;;;40.67;19.75;;;;;;;7.08;92.52;100926.00;4947979;28;20126;-63
2021/10/11 08:11:09;;;;;;;35.78;17.92;;;;;;;7.08;92.50;100928.66;4934551;29;20063;-64
2021/10/11 08:13:54;;;;;;;39.85;20.27;;;;;;;7.31;91.48;100921.75;4947715;28;20077;-63
2021/10/11 08:16:41;;;;;;;42.50;19.88;;;;;;;7.28;91.85;100914.81;4945707;28;20070;-63
2021/10/11 08:19:26;;;;;;;50.75;21.42;;;;;;;7.27;93.11;100918.44;4935835;28;20055;-64
2021/10/11 08:22:11;;;;;;;49.05;21.60;;;;;;;7.62;92.11;100925.78;4935828;28;20194;-64
2021/10/11 08:24:56;;;;;;;42.00;20.05;;;;;;;7.56;91.70;100931.56;4946886;28;20110;-63
2021/10/11 08:27:40;;;;;;;38.05;17.67;;;;;;;7.73;90.64;100933.91;4935542;28;20531;-62
2021/10/11 08:30:25;;;;;;;38.17;18.63;;;;;;;7.82;90.28;100930.59;4940896;28;20062;-62
2021/10/11 08:33:12;;;;;;;38.23;19.03;;;;;;;7.92;90.43;100938.75;4943323;28;20062;-64
2021/10/11 08:36:00;;;;;;;39.28;17.70;;;;;;;7.92;89.66;100936.94;4942166;28;20688;-64
2021/10/11 08:38:46;;;;;;;35.60;18.40;;;;;;;7.92;89.38;100942.28;4948375;28;20174;-63
2021/10/11 08:41:32;;;;;;;40.42;18.35;;;;;;;7.70;91.03;100931.47;4944099;28;20058;-63
2021/10/11 08:44:17;;;;;;;54.10;26.60;;;;;;;7.97;89.65;100938.47;4947787;28;20062;-63
2021/10/11 08:47:02;;;;;;;39.00;17.95;;;;;;;8.06;90.40;100927.09;4943686;28;20174;-63
2021/10/11 08:49:50;;;;;;;39.35;19.65;;;;;;;7.87;89.70;100938.25;4934599;28;20107;-64
2021/10/11 08:52:35;;;;;;;42.60;18.67;;;;;;;8.06;89.13;100938.66;4934423;28;20054;-62
2021/10/11 08:55:20;;;;;;;37.30;18.33;;;;;;;7.94;88.85;100939.53;4944388;28;20057;-63
2021/10/11 08:58:07;;;;;;;44.22;18.17;;;;;;;8.03;89.02;100933.50;4947847;28;20062;-63
2021/10/11 09:00:52;;;;;;;39.55;18.75;;;;;;;8.00;89.51;100943.56;4936189;28;20087;-62
2021/10/11 09:03:37;;;;;;;36.20;18.00;;;;;;;8.17;89.10;100948.56;4946211;28;20070;-62
2021/10/11 09:06:24;;;;;;;46.17;21.50;;;;;;;8.14;88.99;100940.75;4950684;28;20061;-62
2021/10/11 09:09:11;;;;;;;41.75;19.70;;;;;;;8.43;87.60;100950.22;4939889;28;20797;-63
2021/10/11 09:11:56;;;;;;;43.47;20.35;;;;;;;8.68;86.89;100946.56;4942607;28;20099;-64
2021/10/11 09:14:44;;;;;;;45.92;20.55;;;;;;;8.58;87.39;100942.88;4941885;28;20058;-64
2021/10/11 09:17:32;;;;;;;42.60;20.23;;;;;;;8.73;88.53;100951.56;4932956;28;20059;-62
2021/10/11 09:20:19;;;;;;;42.97;21.02;;;;;;;8.74;86.58;100955.94;4942161;28;20058;-64
2021/10/11 09:23:05;;;;;;;39.75;18.83;;;;;;;8.87;85.84;100948.69;4938048;29;20058;-63
2021/10/11 09:25:51;;;;;;;45.83;21.30;;;;;;;9.36;84.06;100958.34;4955416;28;20529;-62
2021/10/11 09:28:36;;;;;;;41.95;19.65;;;;;;;9.41;83.85;100963.34;4953509;28;20054;-63
2021/10/11 09:31:35;;;;;;;40.83;18.77;;;;;;;9.28;83.41;100961.59;4947313;29;20078;-61
2021/10/11 09:34:22;;;;;;;45.45;19.55;;;;;;;9.77;84.50;100959.59;4939068;28;20195;-63
2021/10/11 09:37:09;;;;;;;43.15;17.30;;;;;;;10.01;81.41;100952.28;4934447;28;20118;-64
2021/10/11 09:39:59;;;;;;;34.55;16.98;;;;;;;9.99;81.26;100946.19;4945089;28;20062;-61
2021/10/11 09:42:44;;;;;;;41.08;17.90;;;;;;;9.94;81.13;100945.69;4940778;29;20074;-62
2021/10/11 09:45:29;;;;;;;37.72;17.50;;;;;;;10.36;80.47;100951.28;4942407;28;20518;-63
2021/10/11 09:48:14;;;;;;;39.58;17.55;;;;;;;10.36;80.05;100946.75;4944627;28;20178;-63
2021/10/11 09:51:00;;;;;;;42.13;19.05;;;;;;;10.51;80.17;100947.31;4934544;28;20114;-62
2021/10/11 09:53:46;;;;;;;36.70;18.80;;;;;;;10.69;79.75;100937.75;4946589;28;20133;-63
2021/10/11 09:56:33;;;;;;;34.25;15.90;;;;;;;10.93;79.62;100937.53;4942223;28;20524;-62
2021/10/11 09:59:18;;;;;;;34.00;15.80;;;;;;;10.90;78.52;100942.31;4937811;28;20054;-62
2021/10/11 10:02:03;;;;;;;35.40;16.55;;;;;;;10.58;80.89;100940.47;4940737;28;20113;-63
2021/10/11 10:04:50;;;;;;;33.83;14.87;;;;;;;10.57;80.28;100941.47;4942355;28;20059;-63
2021/10/11 10:07:37;;;;;;;47.95;20.20;;;;;;;10.67;80.79;100937.03;4941239;28;20518;-62
2021/10/11 10:10:24;;;;;;;33.53;15.23;;;;;;;10.90;80.31;100936.94;4934413;28;20412;-61
2021/10/11 10:13:19;;;;;;;34.65;14.90;;;;;;;10.83;79.51;100937.44;4940965;28;20105;-63
2021/10/11 10:16:08;;;;;;;28.75;15.00;;;;;;;10.63;79.37;100938.25;4939131;28;20106;-63
2021/10/11 10:18:53;;;;;;;32.30;14.10;;;;;;;10.89;80.76;100936.06;4937833;28;20082;-62
2021/10/11 10:21:40;;;;;;;32.60;14.70;;;;;;;11.50;76.69;100940.75;4947787;28;20117;-63
2021/10/11 10:24:27;;;;;;;32.47;13.27;;;;;;;11.69;76.89;100927.38;4935421;28;20091;-62
2021/10/11 10:27:14;;;;;;;25.40;10.98;;;;;;;12.56;73.83;100909.66;4940613;28;20059;-63
2021/10/11 10:30:14;;;;;;;25.77;11.38;;;;;;;13.07;73.22;100913.91;4943024;28;20062;-63
2021/10/11 10:33:01;;;;;;;22.50;9.90;;;;;;;13.29;70.83;100912.75;4934308;28;20098;-59
2021/10/11 10:35:47;;;;;;;24.25;10.05;;;;;;;13.63;69.46;100912.25;4936592;29;20738;-62
2021/10/11 10:38:33;;;;;;;24.17;10.15;;;;;;;13.22;69.78;100903.53;4940538;28;20051;-61
2021/10/11 10:41:20;;;;;;;21.90;10.77;;;;;;;12.84;71.21;100907.13;4939865;28;20194;-63
2021/10/11 10:44:16;;;;;;;27.98;12.45;;;;;;;13.10;70.97;100902.81;4935767;28;20214;-63
2021/10/11 10:47:03;;;;;;;23.42;10.35;;;;;;;12.76;72.32;100909.66;4940401;28;20054;-62
2021/10/11 10:49:48;;;;;;;23.45;10.57;;;;;;;12.84;71.68;100907.97;4937116;28;20412;-61
2021/10/11 10:52:33;;;;;;;20.27;9.82;;;;;;;12.89;72.07;100910.22;4934943;28;20106;-64
2021/10/11 10:55:19;;;;;;;19.88;8.98;;;;;;;13.31;72.13;100901.81;4939887;28;20061;-63
2021/10/11 10:58:08;;;;;;;18.85;8.43;;;;;;;13.69;71.30;100900.84;4937569;28;20718;-63
2021/10/11 11:00:55;;;;;;;19.92;9.13;;;;;;;13.61;70.50;100895.31;4943137;28;20428;-63
2021/10/11 11:03:42;;;;;;;17.17;9.38;;;;;;;13.62;69.03;100903.28;4949951;28;20467;-64
2021/10/11 11:06:29;;;;;;;22.35;9.18;;;;;;;13.26;70.31;100901.41;4944444;28;20062;-65
2021/10/11 11:09:14;;;;;;;21.60;9.13;;;;;;;13.28;71.28;100899.44;4937971;28;20070;-63
2021/10/11 11:11:59;;;;;;;19.63;8.68;;;;;;;13.37;69.97;100895.84;4937932;28;20533;-62
2021/10/11 11:14:45;;;;;;;17.48;9.13;;;;;;;13.48;69.98;100901.06;4940260;28;20194;-61
2021/10/11 11:17:32;;;;;;;20.48;10.10;;;;;;;13.49;70.10;100900.06;4941442;28;20054;-62
2021/10/11 11:20:23;;;;;;;16.83;7.95;;;;;;;13.31;71.01;100888.34;4935577;28;20428;-63
2021/10/11 11:23:11;;;;;;;18.73;8.70;;;;;;;13.31;70.53;100893.75;4941266;29;20114;-63
2021/10/11 11:26:01;;;;;;;16.35;8.45;;;;;;;13.37;71.21;100893.13;4934597;28;20066;-61
2021/10/11 11:28:47;;;;;;;16.70;7.95;;;;;;;13.54;71.32;100892.38;4939475;28;20239;-61
2021/10/11 11:31:32;;;;;;;17.83;7.85;;;;;;;13.68;70.40;100891.91;4932756;28;20511;-62
2021/10/11 11:34:18;;;;;;;12.32;6.15;;;;;;;13.84;69.32;100887.69;4939156;28;20086;-63
2021/10/11 11:37:04;;;;;;;16.25;6.30;;;;;;;13.89;69.04;100893.50;4942414;28;20069;-61
2021/10/11 11:39:49;;;;;;;16.85;6.68;;;;;;;14.00;69.65;100885.22;4932249;28;20125;-62
2021/10/11 11:42:35;;;;;;;14.50;6.00;;;;;;;13.92;67.92;100882.41;4941076;28;20567;-61
2021/10/11 11:45:21;;;;;;;15.43;5.97;;;;;;;13.52;69.61;100891.69;4944374;28;20057;-62
2021/10/11 11:48:08;;;;;;;16.63;6.22;;;;;;;13.33;71.57;100886.34;4938179;28;20561;-61
2021/10/11 11:50:56;;;;;;;17.13;6.57;;;;;;;13.34;70.77;100898.81;4946013;28;20584;-63
2021/10/11 11:53:43;;;;;;;17.52;6.15;;;;;;;13.66;69.69;100888.50;4948561;28;20422;-61
2021/10/11 11:56:29;;;;;;;12.10;5.35;;;;;;;13.60;69.95;100885.53;4940702;28;20448;-62
2021/10/11 11:59:14;;;;;;;14.65;5.40;;;;;;;13.84;69.57;100876.91;4932434;28;20059;-62
2021/10/11 12:02:01;;;;;;;14.45;5.25;;;;;;;14.03;69.44;100874.13;4939434;28;20455;-60
2021/10/11 12:04:47;;;;;;;13.60;4.78;;;;;;;14.14;68.60;100882.00;4947586;28;20699;-62
2021/10/11 12:07:33;;;;;;;11.43;5.30;;;;;;;14.17;68.71;100881.69;4943089;28;20057;-62
2021/10/11 12:10:23;;;;;;;8.77;4.53;;;;;;;14.11;68.40;100879.63;4933712;28;20063;-63
2021/10/11 12:13:08;;;;;;;10.40;4.55;;;;;;;14.15;69.07;100877.47;4945352;28;20081;-62
2021/10/11 12:15:58;;;;;;;;;;;;;;;14.03;68.98;100874.97;4938173;28;20062;-62
2021/10/11 12:18:45;;;;;;;17.60;4.65;;;;;;;13.89;69.86;100866.53;4935232;28;19932;-62
2021/10/11 12:21:32;;;;;;;9.93;4.30;;;;;;;14.10;68.93;100875.22;4946568;28;20119;-62
2021/10/11 12:24:18;;;;;;;16.02;5.57;;;;;;;13.99;69.28;100861.94;4952325;28;20053;-62
2021/10/11 12:27:07;;;;;;;9.85;4.40;;;;;;;14.10;69.69;100867.13;4931526;29;20187;-62
2021/10/11 12:29:54;;;;;;;13.73;4.95;;;;;;;14.57;68.23;100867.81;4941776;28;20059;-63
2021/10/11 12:32:39;;;;;;;14.05;4.60;;;;;;;14.51;68.32;100864.88;4930967;28;20172;-63
2021/10/11 12:35:24;;;;;;;13.07;4.60;;;;;;;14.14;69.20;100864.97;4944582;28;20063;-63
2021/10/11 12:38:11;;;;;;;9.52;3.70;;;;;;;14.79;67.13;100862.91;4947609;28;20063;-63
2021/10/11 12:41:07;;;;;;;13.35;4.07;;;;;;;14.83;65.86;100854.34;4935016;28;20063;-62
2021/10/11 12:43:57;;;;;;;11.95;4.22;;;;;;;14.57;66.72;100859.69;4941509;28;20525;-62
2021/10/11 12:46:43;;;;;;;9.02;3.38;;;;;;;14.62;67.17;100864.63;4935405;28;20067;-63
2021/10/11 12:49:34;;;;;;;7.88;3.10;;;;;;;14.35;65.67;100860.13;4938595;28;20058;-63